Terminal Aerodrome Forecast
Issued by NWS Charleston, WV

Home | Current Version | Previous Version | Text Only | Print | Product List | Glossary On
Versions: 1 2 3 4 5 6 7 8 9 10 11 12 13 14 15 16 17 18 19 20 21 22 23 24 25
000
FTUS41 KRLX 300500
TAFCRW
TAF
KCRW 300538Z 3006/3106 28008G15KT 6SM -SNPL BR OVC015
     FM301500 31008G13KT 4SM -SN BR BKN025
     FM301800 31008G13KT P6SM BKN050
     FM310000 32004KT P6SM SCT015=

USA.gov is the U.S. government's official web portal to all federal, state and local government web resources and services.